sensor_id;sensor_type;location;lat;lon;timestamp;P1;durP1;ratioP1;P2;durP2;ratioP2
17852;SDS011;9052;53.494;14.376;2023-04-24T00:00:53;39.67;;;22.10;;
17852;SDS011;9052;53.494;14.376;2023-04-24T00:03:21;36.63;;;21.07;;
17852;SDS011;9052;53.494;14.376;2023-04-24T00:05:48;36.10;;;21.87;;
17852;SDS011;9052;53.494;14.376;2023-04-24T00:08:14;37.03;;;20.20;;
17852;SDS011;9052;53.494;14.376;2023-04-24T00:10:43;33.23;;;20.80;;
17852;SDS011;9052;53.494;14.376;2023-04-24T00:13:09;30.47;;;18.93;;
17852;SDS011;9052;53.494;14.376;2023-04-24T00:15:36;44.53;;;21.40;;
17852;SDS011;9052;53.494;14.376;2023-04-24T00:18:02;32.83;;;22.07;;
17852;SDS011;9052;53.494;14.376;2023-04-24T00:20:29;48.73;;;22.57;;
17852;SDS011;9052;53.494;14.376;2023-04-24T00:22:57;36.47;;;22.40;;
17852;SDS011;9052;53.494;14.376;2023-04-24T00:25:24;45.23;;;22.70;;
17852;SDS011;9052;53.494;14.376;2023-04-24T00:27:52;44.63;;;23.03;;
17852;SDS011;9052;53.494;14.376;2023-04-24T00:30:19;44.53;;;23.67;;
17852;SDS011;9052;53.494;14.376;2023-04-24T00:32:46;49.33;;;21.87;;
17852;SDS011;9052;53.494;14.376;2023-04-24T00:35:12;40.07;;;22.33;;
17852;SDS011;9052;53.494;14.376;2023-04-24T00:37:39;35.30;;;18.73;;
17852;SDS011;9052;53.494;14.376;2023-04-24T00:40:06;27.90;;;19.37;;
17852;SDS011;9052;53.494;14.376;2023-04-24T00:42:33;29.47;;;17.27;;
17852;SDS011;9052;53.494;14.376;2023-04-24T00:45:05;28.63;;;18.13;;
17852;SDS011;9052;53.494;14.376;2023-04-24T00:47:32;24.63;;;15.80;;
17852;SDS011;9052;53.494;14.376;2023-04-24T00:50:00;24.07;;;16.97;;
17852;SDS011;9052;53.494;14.376;2023-04-24T00:52:27;21.00;;;15.57;;
17852;SDS011;9052;53.494;14.376;2023-04-24T00:54:56;24.90;;;15.33;;
17852;SDS011;9052;53.494;14.376;2023-04-24T00:57:22;29.77;;;17.47;;
17852;SDS011;9052;53.494;14.376;2023-04-24T00:59:49;34.93;;;17.23;;
17852;SDS011;9052;53.494;14.376;2023-04-24T01:02:18;22.47;;;14.33;;
17852;SDS011;9052;53.494;14.376;2023-04-24T01:04:44;37.33;;;16.13;;
17852;SDS011;9052;53.494;14.376;2023-04-24T01:07:11;35.43;;;18.37;;
17852;SDS011;9052;53.494;14.376;2023-04-24T01:09:38;19.60;;;14.67;;
17852;SDS011;9052;53.494;14.376;2023-04-24T01:12:06;23.83;;;14.00;;
17852;SDS011;9052;53.494;14.376;2023-04-24T01:14:33;24.90;;;13.10;;
17852;SDS011;9052;53.494;14.376;2023-04-24T01:17:00;18.83;;;13.90;;
17852;SDS011;9052;53.494;14.376;2023-04-24T01:19:28;23.90;;;12.90;;
17852;SDS011;9052;53.494;14.376;2023-04-24T01:21:56;20.20;;;13.10;;
17852;SDS011;9052;53.494;14.376;2023-04-24T01:24:25;23.80;;;13.47;;
17852;SDS011;9052;53.494;14.376;2023-04-24T01:26:52;21.60;;;13.50;;
17852;SDS011;9052;53.494;14.376;2023-04-24T01:29:19;16.80;;;12.30;;
17852;SDS011;9052;53.494;14.376;2023-04-24T01:31:45;17.90;;;12.83;;
17852;SDS011;9052;53.494;14.376;2023-04-24T01:34:12;25.80;;;12.20;;
17852;SDS011;9052;53.494;14.376;2023-04-24T01:36:39;19.27;;;11.30;;
17852;SDS011;9052;53.494;14.376;2023-04-24T01:39:07;17.23;;;11.70;;
17852;SDS011;9052;53.494;14.376;2023-04-24T01:41:35;29.60;;;13.40;;
17852;SDS011;9052;53.494;14.376;2023-04-24T01:44:02;23.00;;;11.87;;
17852;SDS011;9052;53.494;14.376;2023-04-24T01:46:28;17.93;;;12.30;;
17852;SDS011;9052;53.494;14.376;2023-04-24T01:48:56;21.53;;;13.27;;
17852;SDS011;9052;53.494;14.376;2023-04-24T01:51:25;23.33;;;14.17;;
17852;SDS011;9052;53.494;14.376;2023-04-24T01:53:52;14.00;;;12.47;;
17852;SDS011;9052;53.494;14.376;2023-04-24T01:56:18;17.43;;;12.17;;
17852;SDS011;9052;53.494;14.376;2023-04-24T01:58:47;21.93;;;12.60;;
17852;SDS011;9052;53.494;14.376;2023-04-24T02:01:15;23.90;;;12.70;;
17852;SDS011;9052;53.494;14.376;2023-04-24T02:03:41;16.77;;;12.73;;
17852;SDS011;9052;53.494;14.376;2023-04-24T02:06:08;33.23;;;13.27;;
17852;SDS011;9052;53.494;14.376;2023-04-24T02:08:35;22.43;;;14.50;;
17852;SDS011;9052;53.494;14.376;2023-04-24T02:11:02;20.43;;;13.00;;
17852;SDS011;9052;53.494;14.376;2023-04-24T02:13:28;28.70;;;13.80;;
17852;SDS011;9052;53.494;14.376;2023-04-24T02:15:57;18.37;;;12.47;;
17852;SDS011;9052;53.494;14.376;2023-04-24T02:18:24;27.37;;;15.63;;
17852;SDS011;9052;53.494;14.376;2023-04-24T02:20:51;26.00;;;14.97;;
17852;SDS011;9052;53.494;14.376;2023-04-24T02:23:17;20.53;;;15.20;;
17852;SDS011;9052;53.494;14.376;2023-04-24T02:25:44;22.90;;;15.73;;
17852;SDS011;9052;53.494;14.376;2023-04-24T02:28:10;22.93;;;15.33;;
17852;SDS011;9052;53.494;14.376;2023-04-24T02:30:37;25.40;;;15.60;;
17852;SDS011;9052;53.494;14.376;2023-04-24T02:33:05;23.80;;;16.40;;
17852;SDS011;9052;53.494;14.376;2023-04-24T02:35:32;20.97;;;15.13;;
17852;SDS011;9052;53.494;14.376;2023-04-24T02:37:59;20.07;;;14.43;;
17852;SDS011;9052;53.494;14.376;2023-04-24T02:40:25;23.63;;;15.47;;
17852;SDS011;9052;53.494;14.376;2023-04-24T02:42:52;17.40;;;12.93;;
17852;SDS011;9052;53.494;14.376;2023-04-24T02:45:18;26.90;;;14.23;;
17852;SDS011;9052;53.494;14.376;2023-04-24T02:47:45;17.50;;;12.03;;
17852;SDS011;9052;53.494;14.376;2023-04-24T02:50:13;19.70;;;12.17;;
17852;SDS011;9052;53.494;14.376;2023-04-24T02:52:39;17.60;;;12.60;;
17852;SDS011;9052;53.494;14.376;2023-04-24T02:55:06;18.80;;;11.43;;
17852;SDS011;9052;53.494;14.376;2023-04-24T02:57:34;20.67;;;13.37;;
17852;SDS011;9052;53.494;14.376;2023-04-24T03:00:00;18.30;;;13.23;;
17852;SDS011;9052;53.494;14.376;2023-04-24T03:02:28;31.87;;;15.63;;
17852;SDS011;9052;53.494;14.376;2023-04-24T03:04:54;24.20;;;17.30;;
17852;SDS011;9052;53.494;14.376;2023-04-24T03:07:23;22.57;;;16.60;;
17852;SDS011;9052;53.494;14.376;2023-04-24T03:09:50;32.40;;;18.67;;
17852;SDS011;9052;53.494;14.376;2023-04-24T03:12:16;27.73;;;19.77;;
17852;SDS011;9052;53.494;14.376;2023-04-24T03:14:43;24.47;;;18.43;;
17852;SDS011;9052;53.494;14.376;2023-04-24T03:17:11;27.37;;;19.60;;
17852;SDS011;9052;53.494;14.376;2023-04-24T03:19:37;29.50;;;18.83;;
17852;SDS011;9052;53.494;14.376;2023-04-24T03:22:04;34.27;;;20.57;;
17852;SDS011;9052;53.494;14.376;2023-04-24T03:24:32;37.30;;;25.03;;
17852;SDS011;9052;53.494;14.376;2023-04-24T03:26:58;47.83;;;31.27;;
17852;SDS011;9052;53.494;14.376;2023-04-24T03:29:25;53.67;;;35.37;;
17852;SDS011;9052;53.494;14.376;2023-04-24T03:31:52;59.03;;;32.53;;
17852;SDS011;9052;53.494;14.376;2023-04-24T03:34:18;50.83;;;33.17;;
17852;SDS011;9052;53.494;14.376;2023-04-24T03:36:45;49.23;;;31.50;;
17852;SDS011;9052;53.494;14.376;2023-04-24T03:39:13;36.77;;;24.47;;
17852;SDS011;9052;53.494;14.376;2023-04-24T03:41:41;40.20;;;25.30;;
17852;SDS011;9052;53.494;14.376;2023-04-24T03:44:08;33.93;;;22.77;;
17852;SDS011;9052;53.494;14.376;2023-04-24T03:46:34;26.87;;;20.50;;
17852;SDS011;9052;53.494;14.376;2023-04-24T03:49:01;28.30;;;19.80;;
17852;SDS011;9052;53.494;14.376;2023-04-24T03:51:28;18.93;;;15.60;;
17852;SDS011;9052;53.494;14.376;2023-04-24T03:53:55;22.27;;;17.97;;
17852;SDS011;9052;53.494;14.376;2023-04-24T03:56:22;25.53;;;16.57;;
17852;SDS011;9052;53.494;14.376;2023-04-24T03:58:50;21.70;;;15.30;;
17852;SDS011;9052;53.494;14.376;2023-04-24T04:01:17;21.70;;;16.50;;
17852;SDS011;9052;53.494;14.376;2023-04-24T04:03:45;20.67;;;17.03;;
17852;SDS011;9052;53.494;14.376;2023-04-24T04:06:12;24.17;;;18.87;;
17852;SDS011;9052;53.494;14.376;2023-04-24T04:08:38;34.03;;;19.00;;
17852;SDS011;9052;53.494;14.376;2023-04-24T04:11:05;23.27;;;17.93;;
17852;SDS011;9052;53.494;14.376;2023-04-24T04:13:32;26.53;;;19.50;;
17852;SDS011;9052;53.494;14.376;2023-04-24T04:16:00;23.87;;;18.47;;
17852;SDS011;9052;53.494;14.376;2023-04-24T04:18:26;23.80;;;18.60;;
17852;SDS011;9052;53.494;14.376;2023-04-24T04:20:53;27.17;;;19.20;;
17852;SDS011;9052;53.494;14.376;2023-04-24T04:23:20;25.77;;;21.80;;
17852;SDS011;9052;53.494;14.376;2023-04-24T04:25:46;30.60;;;21.47;;
17852;SDS011;9052;53.494;14.376;2023-04-24T04:28:13;26.90;;;20.67;;
17852;SDS011;9052;53.494;14.376;2023-04-24T04:30:40;21.70;;;19.40;;
17852;SDS011;9052;53.494;14.376;2023-04-24T04:33:08;27.77;;;22.40;;
17852;SDS011;9052;53.494;14.376;2023-04-24T04:35:35;27.40;;;21.50;;
17852;SDS011;9052;53.494;14.376;2023-04-24T04:38:02;37.17;;;23.47;;
17852;SDS011;9052;53.494;14.376;2023-04-24T04:40:29;31.43;;;21.53;;
17852;SDS011;9052;53.494;14.376;2023-04-24T04:42:56;37.10;;;24.37;;
17852;SDS011;9052;53.494;14.376;2023-04-24T04:45:23;36.77;;;25.40;;
17852;SDS011;9052;53.494;14.376;2023-04-24T04:47:52;34.17;;;26.53;;
17852;SDS011;9052;53.494;14.376;2023-04-24T04:50:21;39.30;;;24.93;;
17852;SDS011;9052;53.494;14.376;2023-04-24T04:52:48;35.87;;;25.10;;
17852;SDS011;9052;53.494;14.376;2023-04-24T04:55:15;28.40;;;23.03;;
17852;SDS011;9052;53.494;14.376;2023-04-24T04:57:41;28.63;;;20.47;;
17852;SDS011;9052;53.494;14.376;2023-04-24T05:00:08;26.67;;;20.97;;
17852;SDS011;9052;53.494;14.376;2023-04-24T05:02:37;28.63;;;22.07;;
17852;SDS011;9052;53.494;14.376;2023-04-24T05:05:04;22.70;;;19.80;;
17852;SDS011;9052;53.494;14.376;2023-04-24T05:07:32;28.13;;;20.30;;
17852;SDS011;9052;53.494;14.376;2023-04-24T05:09:59;24.53;;;20.37;;
17852;SDS011;9052;53.494;14.376;2023-04-24T05:12:26;22.23;;;19.40;;
17852;SDS011;9052;53.494;14.376;2023-04-24T05:14:52;23.63;;;18.93;;
17852;SDS011;9052;53.494;14.376;2023-04-24T05:17:19;19.97;;;16.63;;
17852;SDS011;9052;53.494;14.376;2023-04-24T05:19:46;25.37;;;19.87;;
17852;SDS011;9052;53.494;14.376;2023-04-24T05:22:13;32.63;;;16.90;;
17852;SDS011;9052;53.494;14.376;2023-04-24T05:24:41;18.93;;;16.93;;
17852;SDS011;9052;53.494;14.376;2023-04-24T05:27:08;26.23;;;17.77;;
17852;SDS011;9052;53.494;14.376;2023-04-24T05:29:34;22.20;;;18.60;;
17852;SDS011;9052;53.494;14.376;2023-04-24T05:32:01;19.93;;;17.33;;
17852;SDS011;9052;53.494;14.376;2023-04-24T05:34:28;22.20;;;17.77;;
17852;SDS011;9052;53.494;14.376;2023-04-24T05:36:54;22.90;;;18.60;;
17852;SDS011;9052;53.494;14.376;2023-04-24T05:39:21;22.20;;;18.43;;
17852;SDS011;9052;53.494;14.376;2023-04-24T05:41:51;19.53;;;17.43;;
17852;SDS011;9052;53.494;14.376;2023-04-24T05:44:18;20.10;;;17.90;;
17852;SDS011;9052;53.494;14.376;2023-04-24T05:46:44;22.87;;;16.47;;
17852;SDS011;9052;53.494;14.376;2023-04-24T05:49:11;24.27;;;16.97;;
17852;SDS011;9052;53.494;14.376;2023-04-24T05:51:37;21.53;;;16.17;;
17852;SDS011;9052;53.494;14.376;2023-04-24T05:54:05;19.27;;;15.30;;
17852;SDS011;9052;53.494;14.376;2023-04-24T05:56:31;16.63;;;14.87;;
17852;SDS011;9052;53.494;14.376;2023-04-24T05:58:59;18.70;;;14.90;;
17852;SDS011;9052;53.494;14.376;2023-04-24T06:01:26;20.23;;;15.17;;
17852;SDS011;9052;53.494;14.376;2023-04-24T06:03:52;16.30;;;14.60;;
17852;SDS011;9052;53.494;14.376;2023-04-24T06:06:19;16.03;;;14.43;;
17852;SDS011;9052;53.494;14.376;2023-04-24T06:08:46;18.33;;;16.30;;
17852;SDS011;9052;53.494;14.376;2023-04-24T06:11:12;17.10;;;15.23;;
17852;SDS011;9052;53.494;14.376;2023-04-24T06:13:39;18.30;;;16.33;;
17852;SDS011;9052;53.494;14.376;2023-04-24T06:16:07;17.20;;;14.97;;
17852;SDS011;9052;53.494;14.376;2023-04-24T06:18:33;18.30;;;15.90;;
17852;SDS011;9052;53.494;14.376;2023-04-24T06:21:00;17.70;;;15.20;;
17852;SDS011;9052;53.494;14.376;2023-04-24T06:23:27;19.53;;;14.90;;
17852;SDS011;9052;53.494;14.376;2023-04-24T06:25:54;16.13;;;14.50;;
17852;SDS011;9052;53.494;14.376;2023-04-24T06:28:21;18.87;;;16.87;;
17852;SDS011;9052;53.494;14.376;2023-04-24T06:30:47;21.13;;;16.60;;
17852;SDS011;9052;53.494;14.376;2023-04-24T06:33:15;19.70;;;16.90;;
17852;SDS011;9052;53.494;14.376;2023-04-24T06:35:42;20.53;;;15.57;;
17852;SDS011;9052;53.494;14.376;2023-04-24T06:38:08;16.50;;;13.73;;
17852;SDS011;9052;53.494;14.376;2023-04-24T06:40:35;13.43;;;11.80;;
17852;SDS011;9052;53.494;14.376;2023-04-24T06:43:02;14.53;;;13.00;;
17852;SDS011;9052;53.494;14.376;2023-04-24T06:45:28;13.43;;;12.03;;
17852;SDS011;9052;53.494;14.376;2023-04-24T06:47:55;11.87;;;10.67;;
17852;SDS011;9052;53.494;14.376;2023-04-24T06:50:23;12.57;;;10.43;;
17852;SDS011;9052;53.494;14.376;2023-04-24T06:52:50;10.20;;;9.20;;
17852;SDS011;9052;53.494;14.376;2023-04-24T06:55:17;10.30;;;9.30;;
17852;SDS011;9052;53.494;14.376;2023-04-24T06:57:43;11.07;;;9.90;;
17852;SDS011;9052;53.494;14.376;2023-04-24T07:00:11;11.10;;;8.40;;
17852;SDS011;9052;53.494;14.376;2023-04-24T07:02:38;10.67;;;8.20;;
17852;SDS011;9052;53.494;14.376;2023-04-24T07:05:04;9.27;;;8.30;;
17852;SDS011;9052;53.494;14.376;2023-04-24T07:07:33;10.90;;;8.23;;
17852;SDS011;9052;53.494;14.376;2023-04-24T07:10:02;9.63;;;8.30;;
17852;SDS011;9052;53.494;14.376;2023-04-24T07:12:29;9.07;;;7.50;;
17852;SDS011;9052;53.494;14.376;2023-04-24T07:14:56;8.10;;;6.93;;
17852;SDS011;9052;53.494;14.376;2023-04-24T07:17:22;8.57;;;7.77;;
17852;SDS011;9052;53.494;14.376;2023-04-24T07:19:49;7.63;;;6.90;;
17852;SDS011;9052;53.494;14.376;2023-04-24T07:22:15;8.33;;;6.27;;
17852;SDS011;9052;53.494;14.376;2023-04-24T07:24:44;7.83;;;7.13;;
17852;SDS011;9052;53.494;14.376;2023-04-24T07:27:10;6.93;;;6.23;;
17852;SDS011;9052;53.494;14.376;2023-04-24T07:29:39;9.60;;;7.70;;
17852;SDS011;9052;53.494;14.376;2023-04-24T07:32:06;7.97;;;6.60;;
17852;SDS011;9052;53.494;14.376;2023-04-24T07:34:33;7.97;;;6.77;;
17852;SDS011;9052;53.494;14.376;2023-04-24T07:37:01;8.33;;;7.57;;
17852;SDS011;9052;53.494;14.376;2023-04-24T07:39:28;7.60;;;7.00;;
17852;SDS011;9052;53.494;14.376;2023-04-24T07:41:57;8.60;;;6.63;;
17852;SDS011;9052;53.494;14.376;2023-04-24T07:44:24;7.27;;;6.53;;
17852;SDS011;9052;53.494;14.376;2023-04-24T07:46:50;16.80;;;7.17;;
17852;SDS011;9052;53.494;14.376;2023-04-24T07:49:17;14.20;;;7.23;;
17852;SDS011;9052;53.494;14.376;2023-04-24T07:51:44;5.70;;;5.20;;
17852;SDS011;9052;53.494;14.376;2023-04-24T07:54:10;7.03;;;6.40;;
17852;SDS011;9052;53.494;14.376;2023-04-24T07:56:37;7.07;;;6.37;;
17852;SDS011;9052;53.494;14.376;2023-04-24T07:59:05;11.90;;;6.73;;
17852;SDS011;9052;53.494;14.376;2023-04-24T08:01:32;6.27;;;5.67;;
17852;SDS011;9052;53.494;14.376;2023-04-24T08:03:58;6.53;;;5.80;;
17852;SDS011;9052;53.494;14.376;2023-04-24T08:06:25;7.30;;;5.93;;
17852;SDS011;9052;53.494;14.376;2023-04-24T08:08:55;21.40;;;6.00;;
17852;SDS011;9052;53.494;14.376;2023-04-24T08:11:21;5.53;;;5.03;;
17852;SDS011;9052;53.494;14.376;2023-04-24T08:13:48;9.40;;;5.20;;
17852;SDS011;9052;53.494;14.376;2023-04-24T08:16:16;14.43;;;5.83;;
17852;SDS011;9052;53.494;14.376;2023-04-24T08:18:42;16.43;;;6.83;;
17852;SDS011;9052;53.494;14.376;2023-04-24T08:21:09;6.40;;;5.00;;
17852;SDS011;9052;53.494;14.376;2023-04-24T08:23:38;5.00;;;4.60;;
17852;SDS011;9052;53.494;14.376;2023-04-24T08:26:04;6.40;;;5.80;;
17852;SDS011;9052;53.494;14.376;2023-04-24T08:28:32;5.40;;;4.90;;
17852;SDS011;9052;53.494;14.376;2023-04-24T08:30:58;5.70;;;5.20;;
17852;SDS011;9052;53.494;14.376;2023-04-24T08:33:26;7.20;;;5.50;;
17852;SDS011;9052;53.494;14.376;2023-04-24T08:35:59;5.67;;;5.00;;
17852;SDS011;9052;53.494;14.376;2023-04-24T08:38:25;5.37;;;4.87;;
17852;SDS011;9052;53.494;14.376;2023-04-24T08:40:52;5.43;;;4.93;;
17852;SDS011;9052;53.494;14.376;2023-04-24T08:43:19;5.93;;;5.33;;
17852;SDS011;9052;53.494;14.376;2023-04-24T08:45:48;4.70;;;4.30;;
17852;SDS011;9052;53.494;14.376;2023-04-24T08:48:15;5.47;;;5.00;;
17852;SDS011;9052;53.494;14.376;2023-04-24T08:50:43;5.07;;;4.50;;
17852;SDS011;9052;53.494;14.376;2023-04-24T08:53:10;4.83;;;4.43;;
17852;SDS011;9052;53.494;14.376;2023-04-24T08:55:37;5.73;;;4.60;;
17852;SDS011;9052;53.494;14.376;2023-04-24T08:58:03;5.57;;;5.10;;
17852;SDS011;9052;53.494;14.376;2023-04-24T09:00:30;6.03;;;4.90;;
17852;SDS011;9052;53.494;14.376;2023-04-24T09:03:00;5.27;;;4.87;;
17852;SDS011;9052;53.494;14.376;2023-04-24T09:05:26;5.30;;;4.90;;
17852;SDS011;9052;53.494;14.376;2023-04-24T09:07:55;5.63;;;4.73;;
17852;SDS011;9052;53.494;14.376;2023-04-24T09:10:23;4.30;;;4.00;;
17852;SDS011;9052;53.494;14.376;2023-04-24T09:12:50;4.63;;;4.13;;
17852;SDS011;9052;53.494;14.376;2023-04-24T09:15:16;5.73;;;5.17;;
17852;SDS011;9052;53.494;14.376;2023-04-24T09:17:43;3.53;;;3.30;;
17852;SDS011;9052;53.494;14.376;2023-04-24T09:20:10;3.40;;;3.17;;
17852;SDS011;9052;53.494;14.376;2023-04-24T09:22:37;3.50;;;3.20;;
17852;SDS011;9052;53.494;14.376;2023-04-24T09:25:05;3.17;;;2.97;;
17852;SDS011;9052;53.494;14.376;2023-04-24T09:27:32;3.83;;;3.07;;
17852;SDS011;9052;53.494;14.376;2023-04-24T09:29:59;10.23;;;3.00;;
17852;SDS011;9052;53.494;14.376;2023-04-24T09:32:25;2.87;;;2.67;;
17852;SDS011;9052;53.494;14.376;2023-04-24T09:35:10;3.10;;;2.90;;
17852;SDS011;9052;53.494;14.376;2023-04-24T09:37:38;4.30;;;3.13;;
17852;SDS011;9052;53.494;14.376;2023-04-24T09:40:13;2.83;;;2.60;;
17852;SDS011;9052;53.494;14.376;2023-04-24T09:42:43;3.00;;;2.87;;
17852;SDS011;9052;53.494;14.376;2023-04-24T09:45:10;2.70;;;2.37;;
17852;SDS011;9052;53.494;14.376;2023-04-24T09:47:37;4.40;;;2.40;;
17852;SDS011;9052;53.494;14.376;2023-04-24T09:50:11;3.00;;;2.80;;
17852;SDS011;9052;53.494;14.376;2023-04-24T09:52:41;3.67;;;3.33;;
17852;SDS011;9052;53.494;14.376;2023-04-24T09:55:19;4.20;;;2.80;;
17852;SDS011;9052;53.494;14.376;2023-04-24T09:57:49;3.73;;;3.43;;
17852;SDS011;9052;53.494;14.376;2023-04-24T10:00:21;3.97;;;2.90;;
17852;SDS011;9052;53.494;14.376;2023-04-24T10:02:54;3.00;;;2.67;;
17852;SDS011;9052;53.494;14.376;2023-04-24T10:05:22;3.47;;;2.50;;
17852;SDS011;9052;53.494;14.376;2023-04-24T10:07:49;2.37;;;2.27;;
17852;SDS011;9052;53.494;14.376;2023-04-24T10:10:17;4.63;;;2.57;;
17852;SDS011;9052;53.494;14.376;2023-04-24T10:12:44;6.57;;;3.50;;
17852;SDS011;9052;53.494;14.376;2023-04-24T10:15:12;4.27;;;2.80;;
17852;SDS011;9052;53.494;14.376;2023-04-24T10:17:40;5.70;;;2.07;;
17852;SDS011;9052;53.494;14.376;2023-04-24T10:20:07;2.53;;;1.83;;
17852;SDS011;9052;53.494;14.376;2023-04-24T10:22:34;2.10;;;1.87;;
17852;SDS011;9052;53.494;14.376;2023-04-24T10:25:02;1.97;;;1.87;;
17852;SDS011;9052;53.494;14.376;2023-04-24T10:27:31;1.97;;;1.87;;
17852;SDS011;9052;53.494;14.376;2023-04-24T10:29:58;1.87;;;1.73;;
17852;SDS011;9052;53.494;14.376;2023-04-24T10:32:25;1.77;;;1.67;;
17852;SDS011;9052;53.494;14.376;2023-04-24T10:34:52;3.00;;;1.63;;
17852;SDS011;9052;53.494;14.376;2023-04-24T10:37:18;1.80;;;1.50;;
17852;SDS011;9052;53.494;14.376;2023-04-24T10:39:47;6.53;;;1.47;;
17852;SDS011;9052;53.494;14.376;2023-04-24T10:42:14;3.83;;;1.60;;
17852;SDS011;9052;53.494;14.376;2023-04-24T10:44:42;1.27;;;1.17;;
17852;SDS011;9052;53.494;14.376;2023-04-24T10:47:12;1.30;;;1.20;;
17852;SDS011;9052;53.494;14.376;2023-04-24T10:49:39;2.20;;;1.60;;
17852;SDS011;9052;53.494;14.376;2023-04-24T10:52:06;1.30;;;1.03;;
17852;SDS011;9052;53.494;14.376;2023-04-24T10:54:35;2.80;;;1.30;;
17852;SDS011;9052;53.494;14.376;2023-04-24T10:59:49;3.50;;;1.10;;
17852;SDS011;9052;53.494;14.376;2023-04-24T11:02:16;1.00;;;0.90;;
17852;SDS011;9052;53.494;14.376;2023-04-24T11:04:43;1.47;;;1.30;;
17852;SDS011;9052;53.494;14.376;2023-04-24T11:07:11;5.77;;;1.00;;
17852;SDS011;9052;53.494;14.376;2023-04-24T11:09:38;2.93;;;0.90;;
17852;SDS011;9052;53.494;14.376;2023-04-24T11:12:05;1.50;;;0.90;;
17852;SDS011;9052;53.494;14.376;2023-04-24T11:17:28;2.03;;;1.03;;
17852;SDS011;9052;53.494;14.376;2023-04-24T11:19:59;4.00;;;0.80;;
17852;SDS011;9052;53.494;14.376;2023-04-24T11:22:26;11.33;;;1.60;;
17852;SDS011;9052;53.494;14.376;2023-04-24T11:24:56;1.30;;;1.10;;
17852;SDS011;9052;53.494;14.376;2023-04-24T11:27:22;1.80;;;0.97;;
17852;SDS011;9052;53.494;14.376;2023-04-24T11:29:52;1.00;;;0.90;;
17852;SDS011;9052;53.494;14.376;2023-04-24T11:32:26;1.27;;;1.10;;
17852;SDS011;9052;53.494;14.376;2023-04-24T11:34:55;1.47;;;1.33;;
17852;SDS011;9052;53.494;14.376;2023-04-24T11:37:22;1.30;;;1.17;;
17852;SDS011;9052;53.494;14.376;2023-04-24T11:39:54;3.67;;;1.53;;
17852;SDS011;9052;53.494;14.376;2023-04-24T11:42:21;1.30;;;1.20;;
17852;SDS011;9052;53.494;14.376;2023-04-24T11:44:48;2.17;;;1.80;;
17852;SDS011;9052;53.494;14.376;2023-04-24T11:47:15;1.63;;;1.53;;
17852;SDS011;9052;53.494;14.376;2023-04-24T11:49:42;2.30;;;1.87;;
17852;SDS011;9052;53.494;14.376;2023-04-24T11:52:10;1.70;;;1.60;;
17852;SDS011;9052;53.494;14.376;2023-04-24T11:54:36;3.47;;;2.30;;
17852;SDS011;9052;53.494;14.376;2023-04-24T11:57:03;4.07;;;2.50;;
17852;SDS011;9052;53.494;14.376;2023-04-24T11:59:35;1.80;;;1.70;;
17852;SDS011;9052;53.494;14.376;2023-04-24T12:02:01;1.93;;;1.83;;
17852;SDS011;9052;53.494;14.376;2023-04-24T12:04:37;2.23;;;2.13;;
17852;SDS011;9052;53.494;14.376;2023-04-24T12:07:04;1.73;;;1.63;;
17852;SDS011;9052;53.494;14.376;2023-04-24T12:09:42;2.30;;;2.10;;
17852;SDS011;9052;53.494;14.376;2023-04-24T12:12:08;1.83;;;1.73;;
17852;SDS011;9052;53.494;14.376;2023-04-24T12:14:41;2.83;;;2.40;;
17852;SDS011;9052;53.494;14.376;2023-04-24T12:17:08;3.97;;;1.90;;
17852;SDS011;9052;53.494;14.376;2023-04-24T12:19:35;5.07;;;1.87;;
17852;SDS011;9052;53.494;14.376;2023-04-24T12:22:02;3.03;;;1.67;;
17852;SDS011;9052;53.494;14.376;2023-04-24T12:24:30;2.87;;;1.63;;
17852;SDS011;9052;53.494;14.376;2023-04-24T12:26:58;1.93;;;1.83;;
17852;SDS011;9052;53.494;14.376;2023-04-24T12:29:26;4.70;;;1.37;;
17852;SDS011;9052;53.494;14.376;2023-04-24T12:31:53;1.00;;;1.00;;
17852;SDS011;9052;53.494;14.376;2023-04-24T12:34:20;1.63;;;1.00;;
17852;SDS011;9052;53.494;14.376;2023-04-24T12:36:47;1.33;;;1.23;;
17852;SDS011;9052;53.494;14.376;2023-04-24T12:39:14;2.40;;;1.40;;
17852;SDS011;9052;53.494;14.376;2023-04-24T12:41:49;2.20;;;1.40;;
17852;SDS011;9052;53.494;14.376;2023-04-24T12:44:18;2.13;;;1.10;;
17852;SDS011;9052;53.494;14.376;2023-04-24T12:46:44;4.50;;;1.70;;
17852;SDS011;9052;53.494;14.376;2023-04-24T12:49:12;1.60;;;1.50;;
17852;SDS011;9052;53.494;14.376;2023-04-24T12:51:38;3.23;;;1.17;;
17852;SDS011;9052;53.494;14.376;2023-04-24T12:54:05;2.20;;;2.00;;
17852;SDS011;9052;53.494;14.376;2023-04-24T12:56:32;3.23;;;1.47;;
17852;SDS011;9052;53.494;14.376;2023-04-24T12:58:58;3.77;;;1.53;;
17852;SDS011;9052;53.494;14.376;2023-04-24T13:01:26;7.03;;;1.63;;
17852;SDS011;9052;53.494;14.376;2023-04-24T13:03:53;3.50;;;1.20;;
17852;SDS011;9052;53.494;14.376;2023-04-24T13:06:20;1.00;;;1.00;;
17852;SDS011;9052;53.494;14.376;2023-04-24T13:08:47;1.57;;;1.47;;
17852;SDS011;9052;53.494;14.376;2023-04-24T13:11:14;5.30;;;1.80;;
17852;SDS011;9052;53.494;14.376;2023-04-24T13:13:40;8.60;;;1.00;;
17852;SDS011;9052;53.494;14.376;2023-04-24T13:16:07;1.00;;;1.00;;
17852;SDS011;9052;53.494;14.376;2023-04-24T13:18:35;3.43;;;1.13;;
17852;SDS011;9052;53.494;14.376;2023-04-24T13:21:01;4.30;;;1.03;;
17852;SDS011;9052;53.494;14.376;2023-04-24T13:23:28;1.20;;;0.97;;
17852;SDS011;9052;53.494;14.376;2023-04-24T13:25:55;1.10;;;0.80;;
17852;SDS011;9052;53.494;14.376;2023-04-24T13:28:23;12.00;;;1.00;;
17852;SDS011;9052;53.494;14.376;2023-04-24T13:30:50;1.07;;;0.83;;
17852;SDS011;9052;53.494;14.376;2023-04-24T13:33:17;1.40;;;0.80;;
17852;SDS011;9052;53.494;14.376;2023-04-24T13:35:45;1.37;;;0.60;;
17852;SDS011;9052;53.494;14.376;2023-04-24T13:38:11;0.67;;;0.67;;
17852;SDS011;9052;53.494;14.376;2023-04-24T13:40:38;0.63;;;0.60;;
17852;SDS011;9052;53.494;14.376;2023-04-24T13:43:04;1.30;;;0.73;;
17852;SDS011;9052;53.494;14.376;2023-04-24T13:45:31;1.90;;;0.70;;
17852;SDS011;9052;53.494;14.376;2023-04-24T13:47:57;0.60;;;0.50;;
17852;SDS011;9052;53.494;14.376;2023-04-24T13:50:24;2.70;;;0.67;;
17852;SDS011;9052;53.494;14.376;2023-04-24T13:52:53;2.50;;;0.77;;
17852;SDS011;9052;53.494;14.376;2023-04-24T13:55:19;1.30;;;0.63;;
17852;SDS011;9052;53.494;14.376;2023-04-24T13:57:46;2.40;;;1.10;;
17852;SDS011;9052;53.494;14.376;2023-04-24T14:00:13;1.77;;;0.80;;
17852;SDS011;9052;53.494;14.376;2023-04-24T14:02:40;4.63;;;0.90;;
17852;SDS011;9052;53.494;14.376;2023-04-24T14:05:07;0.80;;;0.70;;
17852;SDS011;9052;53.494;14.376;2023-04-24T14:07:36;2.13;;;0.90;;
17852;SDS011;9052;53.494;14.376;2023-04-24T14:10:07;1.13;;;0.60;;
17852;SDS011;9052;53.494;14.376;2023-04-24T14:12:57;1.13;;;0.80;;
17852;SDS011;9052;53.494;14.376;2023-04-24T14:15:24;0.60;;;0.60;;
17852;SDS011;9052;53.494;14.376;2023-04-24T14:17:50;1.10;;;0.80;;
17852;SDS011;9052;53.494;14.376;2023-04-24T14:20:19;2.50;;;1.07;;
17852;SDS011;9052;53.494;14.376;2023-04-24T14:22:46;0.90;;;0.70;;
17852;SDS011;9052;53.494;14.376;2023-04-24T14:25:44;4.10;;;0.77;;
17852;SDS011;9052;53.494;14.376;2023-04-24T14:28:13;0.60;;;0.53;;
17852;SDS011;9052;53.494;14.376;2023-04-24T14:30:43;1.13;;;0.40;;
17852;SDS011;9052;53.494;14.376;2023-04-24T14:33:09;10.33;;;0.63;;
17852;SDS011;9052;53.494;14.376;2023-04-24T14:35:37;2.00;;;0.80;;
17852;SDS011;9052;53.494;14.376;2023-04-24T14:38:05;0.70;;;0.50;;
17852;SDS011;9052;53.494;14.376;2023-04-24T14:40:32;2.20;;;0.87;;
17852;SDS011;9052;53.494;14.376;2023-04-24T14:43:00;2.63;;;1.60;;